Time;durP1;ratioP1;P1;durP2;ratioP2;P2;SDS_P1;SDS_P2;PMS_P1;PMS_P2;Temp;Humidity;BMP_temperature;BMP_pressure;BME280_temperature;BME280_humidity;BME280_pressure;Samples;Min_cycle;Max_cycle;Signal;HPM_P1;HPM_P2
2020/12/24 00:00:52;;;;;;;4.25;1.40;;;13.00;63.80;;;;;;2102497;28;20049;-74
2020/12/24 00:01:52;;;;;;;5.60;1.85;;;13.00;63.60;;;;;;2105315;28;20050;-74
2020/12/24 00:02:53;;;;;;;8.73;1.85;;;13.00;63.50;;;;;;2112094;28;20020;-72
2020/12/24 00:03:53;;;;;;;4.38;1.50;;;13.00;63.60;;;;;;2112119;28;20820;-72
2020/12/24 00:04:54;;;;;;;5.82;1.48;;;13.00;63.60;;;;;;2112901;28;20078;-72
2020/12/24 00:05:55;;;;;;;2.58;1.42;;;13.00;63.50;;;;;;2113066;28;20587;-73
2020/12/24 00:06:55;;;;;;;3.45;1.15;;;13.00;63.40;;;;;;2112815;28;20023;-73
2020/12/24 00:07:56;;;;;;;4.65;1.40;;;13.00;63.60;;;;;;2112185;28;20026;-72
2020/12/24 00:08:57;;;;;;;4.53;1.77;;;13.00;63.50;;;;;;2112360;28;20340;-72
2020/12/24 00:09:57;;;;;;;4.38;1.83;;;13.00;63.50;;;;;;2112626;28;20007;-74
2020/12/24 00:10:58;;;;;;;6.63;2.05;;;13.00;63.30;;;;;;2112397;28;20507;-73
2020/12/24 00:11:58;;;;;;;3.97;1.23;;;13.00;63.30;;;;;;2112967;28;20046;-72
2020/12/24 00:12:59;;;;;;;7.03;2.00;;;13.00;63.30;;;;;;2112619;28;20018;-73
2020/12/24 00:13:59;;;;;;;5.38;1.85;;;13.00;63.30;;;;;;2112438;28;20042;-72
2020/12/24 00:15:00;;;;;;;4.50;1.60;;;13.00;63.30;;;;;;2112659;28;20030;-73
2020/12/24 00:16:02;;;;;;;5.95;1.85;;;13.10;63.40;;;;;;2111944;28;20024;-73
2020/12/24 00:17:02;;;;;;;5.15;1.33;;;13.00;63.20;;;;;;2112294;28;20016;-74
2020/12/24 00:18:03;;;;;;;5.05;1.70;;;13.10;63.20;;;;;;2113157;28;20012;-73
2020/12/24 00:19:03;;;;;;;5.82;1.70;;;13.00;63.20;;;;;;2112220;28;20077;-73
2020/12/24 00:20:05;;;;;;;2.75;1.30;;;13.00;63.20;;;;;;2112815;28;20032;-73
2020/12/24 00:21:09;;;;;;;5.28;1.90;;;13.10;63.20;;;;;;2112255;28;20430;-73
2020/12/24 00:22:10;;;;;;;4.88;1.40;;;13.10;63.10;;;;;;2111694;28;20038;-72
2020/12/24 00:23:29;;;;;;;4.50;1.48;;;13.10;63.10;;;;;;2112836;28;20388;-71
2020/12/24 00:24:35;;;;;;;2.42;1.45;;;13.10;63.20;;;;;;2106318;28;20028;-70
2020/12/24 00:25:36;;;;;;;3.05;1.58;;;13.10;63.10;;;;;;2101129;28;20037;-71
2020/12/24 00:26:37;;;;;;;4.47;1.70;;;13.10;63.00;;;;;;2109068;28;20024;-71
2020/12/24 00:27:37;;;;;;;5.28;1.80;;;13.10;63.00;;;;;;2112791;28;20420;-70
2020/12/24 00:28:38;;;;;;;3.58;1.38;;;13.10;62.90;;;;;;2111677;28;20373;-71
2020/12/24 00:29:39;;;;;;;3.53;1.60;;;13.10;62.80;;;;;;2112388;28;20354;-70
2020/12/24 00:30:41;;;;;;;4.68;1.50;;;13.10;62.80;;;;;;2103406;28;20048;-70
2020/12/24 00:31:41;;;;;;;5.63;2.13;;;13.10;62.80;;;;;;2103434;28;20485;-71
2020/12/24 00:32:42;;;;;;;4.25;1.50;;;13.10;62.80;;;;;;2112098;28;20023;-71
2020/12/24 00:33:42;;;;;;;5.03;1.65;;;13.10;62.60;;;;;;2112179;28;20023;-72
2020/12/24 00:34:43;;;;;;;4.82;1.50;;;13.10;62.70;;;;;;2112661;28;20035;-71
2020/12/24 00:35:43;;;;;;;6.65;1.73;;;13.10;62.70;;;;;;2103855;28;20077;-71
2020/12/24 00:36:44;;;;;;;8.88;2.00;;;13.10;62.60;;;;;;2103809;28;20466;-71
2020/12/24 00:37:44;;;;;;;4.45;1.45;;;13.10;62.60;;;;;;2112653;28;20042;-72
2020/12/24 00:38:45;;;;;;;6.28;1.85;;;13.10;62.60;;;;;;2111831;28;20096;-72
2020/12/24 00:39:46;;;;;;;6.57;1.80;;;13.10;62.60;;;;;;2113019;28;20058;-72
2020/12/24 00:40:46;;;;;;;5.88;1.90;;;13.10;62.60;;;;;;2112504;28;20092;-70
2020/12/24 00:41:47;;;;;;;7.80;1.80;;;13.10;62.60;;;;;;2112885;28;20118;-71
2020/12/24 00:42:47;;;;;;;6.60;1.75;;;13.10;62.60;;;;;;2112275;28;20560;-71
2020/12/24 00:43:48;;;;;;;6.85;1.92;;;13.10;62.60;;;;;;2111977;28;20566;-70
2020/12/24 00:44:49;;;;;;;5.00;1.65;;;13.10;62.60;;;;;;2112462;28;20712;-71
2020/12/24 00:45:49;;;;;;;9.00;1.52;;;13.10;62.60;;;;;;2112233;28;20043;-71
2020/12/24 00:46:52;;;;;;;6.22;1.83;;;13.10;62.60;;;;;;2112447;28;20653;-71
2020/12/24 00:47:52;;;;;;;6.03;1.55;;;13.10;62.60;;;;;;2112118;28;20056;-71
2020/12/24 00:48:53;;;;;;;4.15;1.52;;;13.10;62.60;;;;;;2112002;28;20481;-69
2020/12/24 00:49:54;;;;;;;6.78;1.67;;;13.10;62.60;;;;;;2112926;28;20446;-71
2020/12/24 00:50:54;;;;;;;6.18;1.90;;;13.10;62.50;;;;;;2112365;28;20032;-71
2020/12/24 00:51:55;;;;;;;5.03;1.98;;;13.10;62.50;;;;;;2112887;28;20020;-72
2020/12/24 00:52:55;;;;;;;8.55;2.00;;;13.10;62.40;;;;;;2112256;28;20008;-71
2020/12/24 00:53:56;;;;;;;5.80;1.58;;;13.10;62.50;;;;;;2112964;28;20138;-71
2020/12/24 00:54:56;;;;;;;6.75;1.70;;;13.10;62.40;;;;;;2112524;28;20011;-73
2020/12/24 00:55:57;;;;;;;5.85;1.75;;;13.10;62.40;;;;;;2112537;28;20015;-74
2020/12/24 00:56:58;;;;;;;3.40;1.55;;;13.10;62.30;;;;;;2104050;28;20032;-72
2020/12/24 00:57:58;;;;;;;5.25;1.65;;;13.10;62.40;;;;;;2103821;28;20115;-74
2020/12/24 00:58:59;;;;;;;6.53;1.88;;;13.10;62.40;;;;;;2111663;28;20458;-72
2020/12/24 01:00:00;;;;;;;7.22;1.70;;;13.10;62.40;;;;;;2103712;28;20028;-72
2020/12/24 01:01:00;;;;;;;5.80;2.00;;;13.10;62.30;;;;;;2101959;28;20031;-72
2020/12/24 01:02:01;;;;;;;4.82;1.98;;;13.10;62.30;;;;;;2112092;28;20016;-73
2020/12/24 01:03:02;;;;;;;7.68;1.70;;;13.00;62.20;;;;;;2104092;28;20096;-73
2020/12/24 01:04:02;;;;;;;3.63;1.17;;;13.10;62.40;;;;;;2103063;28;20036;-74
2020/12/24 01:05:06;;;;;;;8.45;2.08;;;13.10;62.30;;;;;;2112574;28;20012;-75
2020/12/24 01:06:06;;;;;;;4.60;1.80;;;13.10;62.10;;;;;;2112764;28;20024;-74
2020/12/24 01:07:07;;;;;;;3.80;1.70;;;13.10;62.10;;;;;;2112597;28;20119;-73
2020/12/24 01:08:07;;;;;;;7.68;1.90;;;13.10;62.10;;;;;;2112238;28;20008;-76
2020/12/24 01:09:08;;;;;;;7.18;1.92;;;13.10;62.10;;;;;;2103067;28;20024;-75
2020/12/24 01:10:08;;;;;;;3.55;1.45;;;13.10;62.10;;;;;;2103610;28;20093;-75
2020/12/24 01:13:40;;;;;;;6.07;1.42;;;13.10;62.10;;;;;;2058782;28;20569;-68
2020/12/24 01:14:41;;;;;;;5.32;1.85;;;13.10;62.10;;;;;;2073552;28;20033;-68
2020/12/24 01:15:41;;;;;;;3.97;1.40;;;13.10;62.00;;;;;;2079977;28;20033;-68
2020/12/24 01:16:42;;;;;;;7.22;1.88;;;13.00;61.90;;;;;;2079558;28;20459;-69
2020/12/24 01:17:42;;;;;;;5.22;1.40;;;13.00;61.80;;;;;;2071707;28;20364;-68
2020/12/24 01:18:45;;;;;;;3.83;1.60;;;13.00;61.90;;;;;;2072298;28;20033;-68
2020/12/24 01:19:46;;;;;;;7.22;2.05;;;13.00;61.90;;;;;;2080949;28;20033;-68
2020/12/24 01:20:46;;;;;;;6.57;2.00;;;13.00;62.00;;;;;;2079967;28;20105;-69
2020/12/24 01:21:47;;;;;;;4.47;1.80;;;13.00;62.00;;;;;;2080562;28;20022;-69
2020/12/24 01:22:48;;;;;;;4.38;1.45;;;13.00;62.00;;;;;;2081290;28;20059;-68
2020/12/24 01:23:48;;;;;;;4.57;1.42;;;13.00;62.00;;;;;;2081637;28;20029;-68
2020/12/24 01:24:49;;;;;;;5.88;1.70;;;13.00;62.00;;;;;;2081871;28;20443;-69
2020/12/24 01:25:49;;;;;;;3.65;1.52;;;13.00;62.00;;;;;;2081367;28;20061;-69
2020/12/24 01:26:50;;;;;;;4.30;1.60;;;13.00;62.00;;;;;;2082892;28;20021;-72
2020/12/24 01:27:50;;;;;;;7.35;1.80;;;13.00;61.90;;;;;;2083741;28;20021;-68
2020/12/24 01:28:51;;;;;;;6.15;1.55;;;13.00;62.00;;;;;;2082007;28;20056;-68
2020/12/24 01:29:52;;;;;;;6.38;1.67;;;13.00;61.80;;;;;;2081940;28;20030;-67
2020/12/24 01:30:53;;;;;;;7.47;1.75;;;13.00;61.80;;;;;;2082403;28;20064;-71
2020/12/24 01:31:53;;;;;;;6.95;1.83;;;13.00;61.80;;;;;;2082173;28;20168;-70
2020/12/24 01:32:54;;;;;;;3.78;1.27;;;13.00;61.80;;;;;;2082193;28;20424;-68
2020/12/24 01:33:54;;;;;;;7.03;1.98;;;13.00;61.80;;;;;;2081597;28;20557;-67
2020/12/24 01:34:55;;;;;;;5.28;1.40;;;13.00;61.80;;;;;;2073097;28;20022;-68
2020/12/24 01:35:58;;;;;;;8.02;2.10;;;13.00;61.80;;;;;;2073878;28;20113;-68
2020/12/24 01:37:02;;;;;;;5.13;1.67;;;13.00;61.80;;;;;;2082074;28;20069;-69
2020/12/24 01:38:02;;;;;;;9.07;2.00;;;13.00;61.60;;;;;;2081271;28;20026;-68
2020/12/24 01:39:03;;;;;;;4.80;2.05;;;13.00;61.70;;;;;;2081238;28;20450;-68
2020/12/24 01:40:04;;;;;;;4.68;1.55;;;13.00;61.60;;;;;;2081511;28;20708;-67
2020/12/24 01:41:05;;;;;;;5.88;2.30;;;13.00;61.60;;;;;;2081204;28;20017;-68
2020/12/24 01:42:06;;;;;;;7.32;2.20;;;13.00;61.80;;;;;;2076841;28;20363;-67
2020/12/24 01:43:06;;;;;;;7.07;1.80;;;13.00;61.80;;;;;;2076887;28;20044;-67
2020/12/24 01:44:07;;;;;;;5.03;1.60;;;13.00;61.70;;;;;;2081222;28;20795;-68
2020/12/24 01:45:07;;;;;;;5.32;1.67;;;13.00;61.70;;;;;;2081102;28;20442;-67
2020/12/24 01:46:08;;;;;;;7.57;1.80;;;13.00;61.70;;;;;;2080804;28;20021;-67
2020/12/24 01:47:09;;;;;;;5.28;1.77;;;13.00;61.70;;;;;;2081349;28;20049;-67
2020/12/24 01:48:09;;;;;;;9.07;2.83;;;13.00;61.70;;;;;;2081291;28;20457;-68
2020/12/24 01:49:10;;;;;;;8.07;2.50;;;13.00;61.50;;;;;;2072799;28;20022;-67
2020/12/24 01:50:11;;;;;;;6.47;1.85;;;13.00;61.50;;;;;;2072746;28;20030;-70
2020/12/24 01:51:19;;;;;;;5.32;1.90;;;13.00;61.50;;;;;;2081786;28;20018;-68
2020/12/24 01:52:31;;;;;;;5.65;1.90;;;13.00;61.50;;;;;;2081745;28;20033;-68
2020/12/24 01:53:33;;;;;;;6.22;1.95;;;13.00;61.30;;;;;;2081049;28;20036;-70
2020/12/24 01:54:34;;;;;;;6.45;1.73;;;13.00;61.40;;;;;;2081453;28;20045;-68
2020/12/24 01:55:34;;;;;;;6.82;1.85;;;13.00;61.30;;;;;;2081836;28;20056;-68
2020/12/24 01:56:35;;;;;;;4.82;1.83;;;13.00;61.30;;;;;;2080722;28;20017;-68
2020/12/24 01:57:37;;;;;;;5.70;1.85;;;13.00;61.30;;;;;;2081467;28;20036;-67
2020/12/24 01:58:40;;;;;;;6.60;2.13;;;13.00;61.20;;;;;;2081133;28;20048;-68
2020/12/24 01:59:40;;;;;;;5.65;2.15;;;13.00;61.10;;;;;;2080824;28;20029;-68
2020/12/24 02:00:46;;;;;;;7.07;2.08;;;13.00;61.10;;;;;;2080675;28;20029;-67
2020/12/24 02:01:47;;;;;;;6.70;1.52;;;13.00;61.10;;;;;;2080596;28;20025;-68
2020/12/24 02:02:48;;;;;;;4.22;1.77;;;13.00;61.00;;;;;;2080680;28;20037;-68
2020/12/24 02:03:48;;;;;;;7.00;1.60;;;13.00;61.00;;;;;;2072612;28;20038;-68
2020/12/24 02:04:49;;;;;;;4.53;1.65;;;13.00;61.10;;;;;;2072814;28;20042;-68
2020/12/24 02:05:51;;;;;;;3.80;1.65;;;13.00;61.00;;;;;;2080756;28;20033;-67
2020/12/24 02:06:52;;;;;;;5.10;1.63;;;13.00;61.00;;;;;;2080911;28;20061;-68
2020/12/24 02:07:52;;;;;;;4.97;1.63;;;13.00;61.00;;;;;;2076664;28;20052;-68
2020/12/24 02:08:53;;;;;;;7.65;1.83;;;13.00;60.90;;;;;;2076044;28;20049;-68
2020/12/24 02:09:54;;;;;;;5.72;1.90;;;13.00;61.60;;;;;;2080503;28;20075;-68
2020/12/24 02:10:55;;;;;;;7.82;1.70;;;13.00;60.90;;;;;;2081312;28;20101;-68
2020/12/24 02:11:55;;;;;;;5.78;2.08;;;13.00;61.00;;;;;;2080969;28;20026;-68
2020/12/24 02:12:56;;;;;;;5.93;1.70;;;13.00;60.90;;;;;;2080741;28;20022;-68
2020/12/24 02:13:57;;;;;;;3.47;1.27;;;13.00;60.90;;;;;;2081138;28;20091;-68
2020/12/24 02:14:57;;;;;;;4.82;1.58;;;13.00;60.80;;;;;;2080335;28;20592;-68
2020/12/24 02:15:58;;;;;;;4.82;1.40;;;13.00;60.80;;;;;;2080273;28;20497;-67
2020/12/24 02:16:58;;;;;;;4.20;1.50;;;13.00;60.70;;;;;;2080928;28;20129;-67
2020/12/24 02:17:59;;;;;;;7.75;1.90;;;13.00;60.60;;;;;;2081073;28;20017;-68
2020/12/24 02:19:01;;;;;;;5.53;1.80;;;13.00;60.60;;;;;;2080831;28;20031;-67
2020/12/24 02:20:02;;;;;;;4.10;1.77;;;13.00;60.60;;;;;;2080794;28;20026;-68
2020/12/24 02:21:02;;;;;;;6.15;2.13;;;13.00;60.60;;;;;;2080820;28;20071;-68
2020/12/24 02:22:04;;;;;;;4.03;1.40;;;13.00;60.80;;;;;;2080919;28;20087;-67
2020/12/24 02:23:04;;;;;;;5.97;1.50;;;13.00;60.40;;;;;;2080637;28;20112;-68
2020/12/24 02:24:05;;;;;;;7.40;1.58;;;13.00;60.40;;;;;;2080793;28;20523;-68
2020/12/24 02:25:05;;;;;;;4.38;1.55;;;13.00;60.40;;;;;;2081175;28;20143;-67
2020/12/24 02:26:06;;;;;;;4.88;1.40;;;13.00;60.40;;;;;;2081439;28;20029;-67
2020/12/24 02:27:06;;;;;;;6.82;1.92;;;13.00;60.40;;;;;;2080413;28;20084;-67
2020/12/24 02:28:09;;;;;;;6.25;1.88;;;13.00;60.30;;;;;;2080669;28;20029;-69
2020/12/24 02:29:09;;;;;;;6.72;1.85;;;13.00;60.30;;;;;;2080112;28;20025;-69
2020/12/24 02:30:10;;;;;;;7.35;1.92;;;13.00;60.40;;;;;;2081174;28;20018;-68
2020/12/24 02:31:11;;;;;;;3.90;1.40;;;13.00;60.50;;;;;;2080817;28;20021;-68
2020/12/24 02:32:11;;;;;;;2.95;1.40;;;13.00;60.40;;;;;;2069893;28;20452;-68
2020/12/24 02:33:12;;;;;;;5.47;1.90;;;13.00;60.40;;;;;;2069199;28;20476;-68
2020/12/24 02:34:12;;;;;;;5.50;1.70;;;13.00;60.40;;;;;;2080230;28;20156;-68
2020/12/24 02:35:13;;;;;;;4.70;1.27;;;13.00;60.20;;;;;;2080448;28;20037;-68
2020/12/24 02:36:13;;;;;;;5.13;1.70;;;13.00;60.20;;;;;;2080591;28;20021;-68
2020/12/24 02:37:14;;;;;;;5.13;1.60;;;12.90;60.10;;;;;;2081008;28;20442;-68
2020/12/24 02:38:15;;;;;;;7.53;1.98;;;13.00;60.20;;;;;;2080567;28;20017;-68
2020/12/24 02:39:16;;;;;;;4.70;1.45;;;12.90;60.10;;;;;;2080003;28;20044;-68
2020/12/24 02:40:17;;;;;;;5.32;1.60;;;12.90;60.10;;;;;;2080991;28;20104;-68
2020/12/24 02:41:17;;;;;;;5.63;1.52;;;12.90;60.10;;;;;;2080898;28;20018;-68
2020/12/24 02:42:19;;;;;;;5.22;1.58;;;12.90;60.10;;;;;;2069031;28;20097;-68
2020/12/24 02:43:20;;;;;;;4.53;1.58;;;12.90;60.10;;;;;;2069792;28;20029;-68
2020/12/24 02:44:20;;;;;;;4.57;1.50;;;12.90;60.10;;;;;;2080531;28;20843;-68
2020/12/24 02:45:21;;;;;;;4.20;1.50;;;12.90;60.10;;;;;;2080825;28;20048;-68
2020/12/24 02:46:22;;;;;;;5.05;1.80;;;12.80;60.10;;;;;;2075560;28;20718;-68
2020/12/24 02:47:22;;;;;;;5.72;1.48;;;12.90;60.20;;;;;;2076039;28;20034;-68
2020/12/24 02:48:23;;;;;;;4.47;1.50;;;12.80;60.20;;;;;;2080316;28;20033;-68
2020/12/24 02:49:23;;;;;;;5.90;1.92;;;12.80;60.30;;;;;;2080840;28;20061;-68
2020/12/24 02:50:24;;;;;;;5.30;1.58;;;12.80;60.30;;;;;;2080870;28;20083;-70
2020/12/24 02:51:25;;;;;;;4.50;1.92;;;12.80;60.20;;;;;;2080522;28;20355;-68
2020/12/24 02:52:26;;;;;;;3.60;1.50;;;12.80;60.30;;;;;;2080877;28;20030;-68
2020/12/24 02:53:26;;;;;;;4.93;1.48;;;12.80;60.40;;;;;;2072193;28;20026;-68
2020/12/24 02:54:27;;;;;;;6.05;1.20;;;12.80;60.50;;;;;;2072292;28;20050;-67
2020/12/24 02:55:27;;;;;;;6.38;1.70;;;12.70;60.50;;;;;;2081220;28;20359;-68
2020/12/24 02:56:28;;;;;;;4.20;1.50;;;12.70;60.60;;;;;;2079921;28;20030;-68
2020/12/24 02:57:29;;;;;;;4.68;1.60;;;12.70;60.60;;;;;;2080706;28;20111;-68
2020/12/24 02:58:29;;;;;;;7.90;1.90;;;12.70;60.70;;;;;;2080743;28;20041;-68
2020/12/24 02:59:30;;;;;;;7.00;2.28;;;12.70;60.80;;;;;;2072177;28;20018;-68
2020/12/24 03:00:30;;;;;;;5.03;1.73;;;12.70;60.70;;;;;;2072821;28;20099;-67
2020/12/24 03:01:31;;;;;;;4.55;1.55;;;12.70;60.70;;;;;;2080540;28;20060;-69
2020/12/24 03:02:32;;;;;;;6.60;1.88;;;12.70;60.80;;;;;;2080478;28;20068;-68
2020/12/24 03:03:32;;;;;;;6.20;1.83;;;12.70;60.80;;;;;;2080498;28;20059;-68
2020/12/24 03:04:36;;;;;;;8.27;1.38;;;12.60;60.70;;;;;;2075005;28;20121;-68
2020/12/24 03:05:36;;;;;;;3.70;1.60;;;12.70;60.90;;;;;;2076422;28;20115;-68
2020/12/24 03:06:37;;;;;;;4.63;1.70;;;12.70;60.90;;;;;;2081090;28;20030;-68
2020/12/24 03:07:37;;;;;;;3.25;1.35;;;12.70;61.00;;;;;;2080501;28;20091;-68
2020/12/24 03:08:38;;;;;;;5.30;1.60;;;12.60;61.00;;;;;;2080177;28;20017;-68
2020/12/24 03:09:38;;;;;;;5.53;1.67;;;12.60;61.00;;;;;;2081054;28;20025;-68
2020/12/24 03:10:39;;;;;;;6.13;1.60;;;12.60;61.10;;;;;;2080728;28;20447;-68
2020/12/24 03:11:49;;;;;;;4.50;1.58;;;12.60;61.10;;;;;;2080223;28;20069;-68
2020/12/24 03:12:49;;;;;;;4.93;1.63;;;12.60;61.00;;;;;;2079866;28;20386;-69
2020/12/24 03:13:50;;;;;;;5.68;1.40;;;12.60;61.20;;;;;;2068448;28;20086;-68
2020/12/24 03:14:52;;;;;;;4.97;1.83;;;12.60;61.20;;;;;;2069157;28;20139;-68
2020/12/24 03:15:52;;;;;;;5.07;1.67;;;12.60;61.30;;;;;;2080972;28;20029;-68
2020/12/24 03:16:53;;;;;;;5.60;1.65;;;12.60;61.30;;;;;;2079792;28;20044;-68
2020/12/24 03:17:53;;;;;;;5.80;1.45;;;12.60;61.30;;;;;;2080615;28;20055;-67
2020/12/24 03:18:54;;;;;;;4.63;1.35;;;12.60;61.50;;;;;;2080903;28;20067;-68
2020/12/24 03:19:54;;;;;;;6.40;1.67;;;12.60;61.50;;;;;;2075723;28;20164;-67
2020/12/24 03:20:55;;;;;;;5.68;1.50;;;12.60;61.60;;;;;;2075299;28;20030;-68
2020/12/24 03:21:55;;;;;;;6.35;1.63;;;12.60;61.50;;;;;;2081010;28;20025;-68
2020/12/24 03:22:56;;;;;;;6.30;1.48;;;12.60;61.60;;;;;;2079862;28;20027;-68
2020/12/24 03:23:57;;;;;;;2.85;1.20;;;12.60;61.60;;;;;;2080424;28;20359;-68
2020/12/24 03:24:57;;;;;;;3.50;1.55;;;12.60;61.70;;;;;;2080704;28;20040;-68
2020/12/24 03:25:58;;;;;;;6.88;1.58;;;12.60;61.80;;;;;;2080122;28;20096;-68
2020/12/24 03:26:58;;;;;;;5.95;1.52;;;12.60;61.70;;;;;;2080528;28;20021;-68
2020/12/24 03:27:59;;;;;;;3.95;1.60;;;12.60;61.70;;;;;;2080616;28;20037;-68
2020/12/24 03:29:00;;;;;;;4.50;2.00;;;12.60;61.80;;;;;;2080079;28;20071;-68
2020/12/24 03:30:00;;;;;;;2.22;1.30;;;12.60;61.80;;;;;;2068573;28;20017;-69
2020/12/24 03:31:01;;;;;;;6.47;1.70;;;12.60;61.90;;;;;;2068522;28;20034;-68
2020/12/24 03:32:01;;;;;;;4.55;1.40;;;12.60;61.80;;;;;;2079837;28;20393;-68
2020/12/24 03:33:02;;;;;;;5.30;2.05;;;12.60;61.80;;;;;;2079831;28;20387;-68
2020/12/24 03:34:03;;;;;;;7.05;1.83;;;12.60;61.80;;;;;;2080173;28;20540;-68
2020/12/24 03:35:05;;;;;;;7.35;1.58;;;12.60;61.80;;;;;;2080476;28;20076;-68
2020/12/24 03:36:06;;;;;;;5.25;1.55;;;12.60;61.80;;;;;;2080080;28;20184;-68
2020/12/24 03:37:07;;;;;;;4.90;1.20;;;12.50;61.80;;;;;;2079953;28;20538;-68
2020/12/24 03:38:07;;;;;;;6.03;1.60;;;12.60;61.90;;;;;;2080163;28;20033;-68
2020/12/24 03:39:08;;;;;;;4.20;1.20;;;12.60;62.00;;;;;;2080737;28;20030;-68
2020/12/24 03:40:09;;;;;;;5.72;2.03;;;12.60;62.00;;;;;;2080070;28;20021;-68
2020/12/24 03:41:09;;;;;;;8.75;1.85;;;12.60;62.00;;;;;;2080307;28;20382;-68
2020/12/24 03:42:10;;;;;;;8.10;1.52;;;12.60;62.10;;;;;;2080783;28;20028;-68
2020/12/24 03:43:10;;;;;;;6.93;2.08;;;12.60;62.00;;;;;;2079840;28;20026;-68
2020/12/24 03:44:11;;;;;;;3.88;1.50;;;12.60;62.10;;;;;;2079977;28;20041;-68
2020/12/24 03:45:11;;;;;;;6.18;2.00;;;12.60;62.10;;;;;;2079475;28;20037;-68
2020/12/24 03:46:12;;;;;;;5.45;1.55;;;12.60;62.10;;;;;;2079653;28;20025;-67
2020/12/24 03:47:13;;;;;;;7.13;1.75;;;12.60;62.10;;;;;;2080223;28;20067;-68
2020/12/24 03:48:13;;;;;;;7.35;1.77;;;12.60;62.10;;;;;;2080413;28;20025;-67
2020/12/24 03:49:14;;;;;;;5.70;1.52;;;12.60;62.10;;;;;;2079537;28;20646;-68
2020/12/24 03:50:14;;;;;;;5.55;1.88;;;12.60;62.10;;;;;;2080368;28;20018;-68
2020/12/24 03:51:15;;;;;;;5.72;1.67;;;12.60;62.10;;;;;;2079763;28;20020;-67
2020/12/24 03:52:15;;;;;;;6.00;1.85;;;12.60;62.10;;;;;;2080234;28;20070;-67
2020/12/24 03:53:16;;;;;;;5.47;1.75;;;12.60;62.10;;;;;;2079758;28;20029;-68
2020/12/24 03:54:17;;;;;;;2.28;1.42;;;12.60;62.10;;;;;;2080708;28;20044;-68
2020/12/24 03:55:17;;;;;;;5.15;1.73;;;12.60;62.10;;;;;;2080189;28;20105;-68
2020/12/24 03:56:18;;;;;;;4.35;1.50;;;12.60;62.10;;;;;;2079778;28;20025;-68
2020/12/24 03:57:18;;;;;;;4.53;1.60;;;12.60;62.20;;;;;;2080362;28;20041;-68
2020/12/24 03:58:19;;;;;;;6.30;1.58;;;12.60;62.20;;;;;;2079942;28;20017;-68
2020/12/24 03:59:20;;;;;;;7.63;2.00;;;12.60;62.30;;;;;;2079910;28;20140;-67
2020/12/24 04:00:20;;;;;;;8.25;1.88;;;12.60;62.40;;;;;;2080266;28;20021;-68
2020/12/24 04:01:21;;;;;;;6.38;1.85;;;12.60;62.30;;;;;;2079375;28;20424;-68
2020/12/24 04:02:21;;;;;;;4.25;1.95;;;12.60;62.30;;;;;;2079886;28;20048;-67
2020/12/24 04:03:22;;;;;;;8.30;2.00;;;12.60;62.40;;;;;;2080423;28;20037;-68
2020/12/24 04:04:22;;;;;;;6.22;2.13;;;12.60;62.40;;;;;;2079543;28;20034;-68
2020/12/24 04:05:23;;;;;;;4.28;1.65;;;12.60;62.40;;;;;;2080344;28;20053;-68
2020/12/24 04:06:23;;;;;;;3.10;1.30;;;12.60;62.40;;;;;;2080221;28;20068;-68
2020/12/24 04:07:24;;;;;;;5.63;1.60;;;12.60;62.40;;;;;;2079986;28;20039;-68
2020/12/24 04:08:24;;;;;;;4.10;1.50;;;12.50;62.50;;;;;;2080323;28;20079;-68
2020/12/24 04:09:25;;;;;;;3.83;1.52;;;12.60;62.70;;;;;;2080661;28;20033;-68
2020/12/24 04:10:26;;;;;;;3.58;1.10;;;12.50;62.50;;;;;;2079926;28;20857;-68
2020/12/24 04:11:26;;;;;;;4.75;1.80;;;12.50;62.60;;;;;;2080022;28;20025;-67
2020/12/24 04:12:27;;;;;;;6.13;1.80;;;12.50;62.60;;;;;;2079893;28;20048;-68
2020/12/24 04:13:27;;;;;;;4.80;1.70;;;12.50;62.70;;;;;;2079668;28;20040;-67
2020/12/24 04:14:28;;;;;;;4.60;1.80;;;12.50;62.70;;;;;;2080503;28;20025;-67
2020/12/24 04:15:29;;;;;;;6.13;1.70;;;12.50;62.80;;;;;;2079837;28;20064;-68
2020/12/24 04:16:29;;;;;;;6.70;1.73;;;12.50;62.80;;;;;;2079300;28;20064;-68
2020/12/24 04:17:30;;;;;;;7.00;1.63;;;12.50;62.80;;;;;;2080153;28;20124;-68
2020/12/24 04:18:30;;;;;;;6.30;1.80;;;12.50;62.90;;;;;;2079138;28;20086;-68
2020/12/24 04:19:31;;;;;;;4.97;1.98;;;12.50;62.90;;;;;;2079813;28;20413;-68
2020/12/24 04:20:31;;;;;;;4.82;1.67;;;12.50;63.00;;;;;;2080213;28;20044;-68
2020/12/24 04:21:32;;;;;;;6.53;1.80;;;12.50;63.10;;;;;;2080405;28;20743;-66
2020/12/24 04:22:33;;;;;;;4.00;1.52;;;12.50;63.40;;;;;;2079931;28;20048;-68
2020/12/24 04:23:33;;;;;;;5.85;1.50;;;12.50;63.50;;;;;;2080524;28;20041;-68
2020/12/24 04:24:34;;;;;;;5.05;1.73;;;12.50;63.60;;;;;;2080055;28;20037;-66
2020/12/24 04:25:34;;;;;;;8.50;2.17;;;12.50;63.70;;;;;;2079887;28;20044;-68
2020/12/24 04:26:35;;;;;;;5.93;2.03;;;12.50;63.70;;;;;;2080197;28;20032;-68
2020/12/24 04:27:35;;;;;;;4.45;1.70;;;12.50;63.80;;;;;;2079883;28;20395;-68
2020/12/24 04:28:36;;;;;;;6.22;1.60;;;12.50;63.90;;;;;;2079784;28;20042;-68
2020/12/24 04:29:36;;;;;;;4.03;1.58;;;12.50;63.80;;;;;;2080458;28;20030;-68
2020/12/24 04:30:37;;;;;;;3.67;1.77;;;12.40;63.80;;;;;;2079652;28;20060;-68
2020/12/24 04:31:44;;;;;;;6.18;1.67;;;12.40;63.80;;;;;;2067567;28;20108;-68
2020/12/24 04:32:44;;;;;;;6.35;1.80;;;12.40;64.10;;;;;;2069301;28;20046;-68
2020/12/24 04:33:45;;;;;;;4.47;1.27;;;12.40;64.10;;;;;;2080588;28;20497;-68
2020/12/24 04:34:45;;;;;;;4.00;1.70;;;12.40;64.10;;;;;;2080915;28;20057;-68
2020/12/24 04:35:46;;;;;;;3.35;1.55;;;12.30;64.10;;;;;;2079795;28;20030;-68
2020/12/24 04:36:49;;;;;;;5.07;1.73;;;12.30;64.30;;;;;;2080212;28;20026;-68
2020/12/24 04:37:50;;;;;;;5.82;1.77;;;12.30;64.30;;;;;;2080108;28;20415;-67
2020/12/24 04:38:51;;;;;;;3.13;1.55;;;12.30;64.20;;;;;;2071627;28;20033;-67
2020/12/24 04:39:51;;;;;;;3.75;1.55;;;12.20;64.30;;;;;;2071613;28;20414;-68
2020/12/24 04:40:52;;;;;;;4.35;1.38;;;12.20;64.30;;;;;;2079917;28;20088;-68
2020/12/24 04:41:53;;;;;;;1.92;1.23;;;12.20;64.40;;;;;;2079723;28;20065;-68
2020/12/24 04:42:53;;;;;;;6.63;1.88;;;12.20;64.50;;;;;;2079995;28;20032;-68
2020/12/24 04:43:55;;;;;;;5.28;1.70;;;12.20;64.60;;;;;;2071593;28;20493;-68
2020/12/24 04:44:58;;;;;;;7.13;1.70;;;12.20;64.60;;;;;;2062700;28;20022;-68
2020/12/24 04:45:59;;;;;;;2.67;1.30;;;12.20;64.70;;;;;;2071469;28;20470;-68
2020/12/24 04:47:00;;;;;;;4.28;1.48;;;12.20;64.80;;;;;;2080366;28;20037;-68
2020/12/24 04:48:01;;;;;;;6.10;1.98;;;12.10;64.70;;;;;;2079941;28;20051;-68
2020/12/24 04:49:01;;;;;;;5.45;2.00;;;12.20;64.80;;;;;;2069463;28;20074;-67
2020/12/24 04:50:02;;;;;;;8.95;2.22;;;12.10;64.80;;;;;;2069546;28;20023;-67
2020/12/24 04:51:08;;;;;;;6.15;2.03;;;12.10;64.90;;;;;;2080067;28;20013;-67
2020/12/24 04:52:09;;;;;;;6.03;1.77;;;12.10;65.00;;;;;;2080057;28;20037;-67
2020/12/24 04:53:09;;;;;;;7.97;1.95;;;12.10;65.10;;;;;;2068169;28;20022;-69
2020/12/24 04:54:12;;;;;;;5.50;1.98;;;12.10;65.10;;;;;;2068611;28;20448;-67
2020/12/24 04:55:13;;;;;;;4.57;1.35;;;12.10;65.10;;;;;;2079886;28;20018;-68
2020/12/24 04:56:14;;;;;;;5.88;1.70;;;12.10;65.20;;;;;;2079586;28;20028;-68
2020/12/24 04:57:14;;;;;;;4.55;1.50;;;12.10;65.20;;;;;;2082178;28;20103;-66
2020/12/24 04:58:15;;;;;;;4.53;1.75;;;12.10;65.30;;;;;;2080976;28;20096;-67
2020/12/24 04:59:18;;;;;;;4.80;1.67;;;12.10;65.40;;;;;;2080621;28;20040;-67
2020/12/24 05:00:19;;;;;;;5.13;1.73;;;12.10;65.40;;;;;;2080857;28;20021;-68
2020/12/24 05:01:20;;;;;;;5.28;1.70;;;12.10;66.20;;;;;;2080351;28;20811;-68
2020/12/24 05:02:20;;;;;;;5.13;1.88;;;12.10;65.50;;;;;;2081412;28;20168;-67
2020/12/24 05:03:21;;;;;;;6.22;2.30;;;12.10;65.60;;;;;;2080789;28;20029;-68
2020/12/24 05:04:21;;;;;;;5.18;1.70;;;12.10;65.60;;;;;;2080808;28;20033;-68
2020/12/24 05:05:22;;;;;;;2.53;1.48;;;12.10;65.70;;;;;;2081387;28;20138;-67
2020/12/24 05:06:23;;;;;;;6.95;1.80;;;12.10;65.80;;;;;;2080714;28;20030;-68
2020/12/24 05:07:23;;;;;;;6.40;1.70;;;12.10;66.10;;;;;;2081084;28;20029;-68
2020/12/24 05:08:24;;;;;;;5.78;1.80;;;12.00;66.00;;;;;;2081598;28;20565;-69
2020/12/24 05:09:24;;;;;;;6.28;1.88;;;12.00;65.90;;;;;;2080641;28;20095;-68
2020/12/24 05:10:25;;;;;;;5.88;1.60;;;12.00;66.00;;;;;;2080872;28;20049;-68
2020/12/24 05:11:30;;;;;;;3.97;1.45;;;12.00;66.00;;;;;;2081348;28;20034;-68
2020/12/24 05:12:32;;;;;;;4.32;1.52;;;12.00;66.00;;;;;;2080823;28;20033;-68
2020/12/24 05:13:32;;;;;;;4.65;1.55;;;12.00;66.00;;;;;;2081170;28;20037;-68
2020/12/24 05:14:33;;;;;;;5.30;1.70;;;12.00;66.10;;;;;;2081905;28;20076;-68
2020/12/24 05:15:33;;;;;;;3.58;1.40;;;12.00;66.20;;;;;;2081141;28;20032;-67
2020/12/24 05:16:34;;;;;;;4.40;1.65;;;12.00;66.30;;;;;;2079332;28;20025;-67
2020/12/24 05:17:35;;;;;;;7.72;1.75;;;12.00;66.30;;;;;;2080703;28;20713;-67
2020/12/24 05:18:35;;;;;;;5.78;1.60;;;12.00;66.30;;;;;;2080635;28;20033;-67
2020/12/24 05:19:47;;;;;;;8.77;1.73;;;12.00;66.40;;;;;;2081086;28;20045;-66
2020/12/24 05:20:49;;;;;;;7.25;2.10;;;12.00;66.30;;;;;;2081834;28;20033;-69